createdAt,value
2023-02-13T00:01:53.671Z,14.38
2023-02-13T00:05:56.733Z,16.95
2023-02-13T00:10:01.151Z,14.60
2023-02-13T00:14:04.205Z,14.13
2023-02-13T00:18:07.519Z,14.73
2023-02-13T00:22:10.984Z,14.15
2023-02-13T00:26:17.579Z,13.98
2023-02-13T00:30:21.736Z,13.13
2023-02-13T00:34:24.771Z,14.43
2023-02-13T00:38:27.777Z,12.73
2023-02-13T00:42:32.233Z,11.90
2023-02-13T00:46:35.328Z,15.63
2023-02-13T00:50:38.392Z,14.05
2023-02-13T00:54:41.668Z,14.57
2023-02-13T00:58:46.620Z,11.75
2023-02-13T01:02:49.722Z,12.80
2023-02-13T01:06:54.553Z,13.98
2023-02-13T01:10:58.555Z,17.08
2023-02-13T01:15:03.537Z,16.92
2023-02-13T01:19:06.851Z,13.13
2023-02-13T01:23:10.000Z,14.32
2023-02-13T01:27:13.035Z,13.43
2023-02-13T01:31:18.193Z,13.88
2023-02-13T01:35:21.465Z,12.52
2023-02-13T01:39:24.514Z,12.48
2023-02-13T01:43:45.391Z,15.10
2023-02-13T01:47:52.474Z,12.68
2023-02-13T01:51:57.705Z,14.60
2023-02-13T01:56:04.633Z,14.88
2023-02-13T02:00:10.064Z,12.65
2023-02-13T02:04:25.837Z,12.15
2023-02-13T02:08:31.239Z,14.88
2023-02-13T02:12:42.955Z,11.75
2023-02-13T02:16:47.819Z,13.27
2023-02-13T02:21:32.315Z,12.80
2023-02-13T02:26:14.275Z,14.23
2023-02-13T02:31:03.267Z,16.05
2023-02-13T02:35:23.836Z,14.98
2023-02-13T02:39:33.624Z,10.27
2023-02-13T02:43:49.110Z,12.90
2023-02-13T02:48:18.094Z,11.55
2023-02-13T02:52:30.587Z,12.80
2023-02-13T02:56:41.611Z,12.43
2023-02-13T03:01:03.321Z,11.90
2023-02-13T03:05:36.613Z,11.40
2023-02-13T03:10:04.916Z,9.82
2023-02-13T03:14:10.630Z,11.80
2023-02-13T03:18:31.468Z,10.73
2023-02-13T03:22:46.329Z,12.77
2023-02-13T03:26:58.840Z,9.82
2023-02-13T03:31:13.446Z,10.18
2023-02-13T03:35:44.446Z,11.32
2023-02-13T03:39:57.032Z,11.10
2023-02-13T03:44:09.552Z,12.95
2023-02-13T03:48:49.442Z,12.50
2023-02-13T03:52:56.887Z,9.93
2023-02-13T03:57:17.564Z,8.95
2023-02-13T04:01:26.846Z,11.90
2023-02-13T04:05:35.218Z,7.82
2023-02-13T04:09:41.697Z,10.30
2023-02-13T04:13:51.119Z,12.80
2023-02-13T04:18:00.425Z,13.73
2023-02-13T04:22:04.064Z,7.40
2023-02-13T04:26:09.915Z,10.88
2023-02-13T04:30:14.011Z,9.07
2023-02-13T04:34:18.787Z,8.18
2023-02-13T04:38:21.830Z,9.23
2023-02-13T04:42:24.908Z,7.18
2023-02-13T04:46:27.970Z,8.93
2023-02-13T04:50:32.380Z,7.22
2023-02-13T04:54:35.415Z,10.07
2023-02-13T04:58:38.488Z,12.27
2023-02-13T05:02:41.488Z,10.40
2023-02-13T05:06:46.287Z,8.70
2023-02-13T05:10:49.926Z,9.27
2023-02-13T05:14:52.933Z,12.02
2023-02-13T05:18:56.058Z,10.55
2023-02-13T05:23:18.204Z,8.85
2023-02-13T05:27:21.258Z,12.00
2023-02-13T05:31:24.412Z,8.18
2023-02-13T05:35:27.584Z,11.10
2023-02-13T05:39:32.039Z,12.45
2023-02-13T05:43:35.054Z,10.07
2023-02-13T05:47:38.313Z,11.85
2023-02-13T05:51:41.336Z,10.18
2023-02-13T05:55:45.690Z,13.90
2023-02-13T05:59:48.701Z,11.32
2023-02-13T06:03:52.079Z,9.45
2023-02-13T06:07:55.340Z,11.93
2023-02-13T06:11:59.802Z,12.35
2023-02-13T06:16:02.930Z,14.00
2023-02-13T06:20:07.243Z,10.85
2023-02-13T06:24:10.485Z,11.65
2023-02-13T06:28:14.936Z,11.38
2023-02-13T06:32:18.003Z,10.88
2023-02-13T06:36:21.043Z,10.15
2023-02-13T06:40:24.063Z,9.23
2023-02-13T06:44:28.539Z,8.65
2023-02-13T06:48:31.607Z,11.02
2023-02-13T06:52:35.023Z,8.65
2023-02-13T06:56:38.072Z,9.50
2023-02-13T07:00:42.577Z,8.98
2023-02-13T07:04:45.690Z,8.85
2023-02-13T07:08:51.449Z,9.90
2023-02-13T07:13:05.231Z,8.35
2023-02-13T07:17:11.074Z,7.78
2023-02-13T07:21:14.113Z,8.07
2023-02-13T07:25:17.475Z,8.95
2023-02-13T07:29:20.538Z,7.28
2023-02-13T07:33:25.355Z,7.95
2023-02-13T07:37:29.229Z,8.73
2023-02-13T07:41:32.244Z,9.05
2023-02-13T07:45:35.253Z,8.82
2023-02-13T07:49:39.645Z,8.68
2023-02-13T07:53:42.702Z,8.35
2023-02-13T07:57:45.701Z,8.82
2023-02-13T08:01:48.786Z,9.77
2023-02-13T08:05:53.415Z,9.70
2023-02-13T08:10:13.960Z,9.52
2023-02-13T08:14:17.017Z,8.60
2023-02-13T08:18:20.205Z,7.72
2023-02-13T08:22:24.675Z,9.05
2023-02-13T08:26:27.901Z,8.18
2023-02-13T08:30:31.062Z,7.40
2023-02-13T08:34:34.130Z,7.55
2023-02-13T08:42:46.442Z,9.40
2023-02-13T08:46:49.504Z,7.00
2023-02-13T08:50:52.575Z,11.35
2023-02-13T08:54:56.976Z,9.40
2023-02-13T08:59:00.021Z,7.65
2023-02-13T09:03:03.803Z,10.43
2023-02-13T09:07:06.980Z,11.50
2023-02-13T09:11:11.911Z,7.82
2023-02-13T09:15:14.929Z,8.57
2023-02-13T09:19:18.057Z,7.65
2023-02-13T09:23:21.048Z,9.13
2023-02-13T09:27:25.574Z,9.38
2023-02-13T09:31:29.764Z,11.45
2023-02-13T09:35:32.909Z,8.25
2023-02-13T09:39:35.974Z,9.43
2023-02-13T09:43:48.536Z,10.48
2023-02-13T09:47:52.025Z,9.93
2023-02-13T09:51:58.053Z,10.48
2023-02-13T09:56:11.617Z,10.55
2023-02-13T10:00:21.257Z,10.50
2023-02-13T10:04:33.973Z,8.00
2023-02-13T10:08:58.313Z,6.45
2023-02-13T10:13:23.648Z,6.07
2023-02-13T10:17:34.101Z,8.32
2023-02-13T10:21:50.879Z,7.35
2023-02-13T10:25:59.065Z,7.05
2023-02-13T10:30:06.994Z,8.85
2023-02-13T10:34:17.226Z,7.18
2023-02-13T10:38:22.354Z,8.45
2023-02-13T10:42:38.472Z,9.48
2023-02-13T10:46:51.611Z,5.95
2023-02-13T10:51:05.741Z,4.10
2023-02-13T10:55:25.985Z,4.57
2023-02-13T10:59:46.928Z,5.03
2023-02-13T11:04:07.455Z,4.55
2023-02-13T11:08:19.669Z,6.95
2023-02-13T11:12:28.584Z,5.47
2023-02-13T11:16:40.788Z,5.55
2023-02-13T11:20:48.084Z,6.75
2023-02-13T11:24:56.879Z,4.78
2023-02-13T11:29:02.604Z,5.38
2023-02-13T11:33:08.467Z,4.90
2023-02-13T11:37:33.029Z,5.00
2023-02-13T11:41:43.258Z,6.28
2023-02-13T11:45:46.484Z,4.80
2023-02-13T11:49:49.606Z,3.70
2023-02-13T11:53:52.868Z,4.70
2023-02-13T11:58:02.669Z,3.20
2023-02-13T12:02:15.652Z,3.67
2023-02-13T12:06:20.933Z,5.38
2023-02-13T12:10:28.086Z,3.17
2023-02-13T12:14:36.499Z,6.82
2023-02-13T12:18:43.087Z,5.05
2023-02-13T12:23:00.460Z,3.30
2023-02-13T12:27:12.254Z,4.85
2023-02-13T12:31:32.452Z,5.30
2023-02-13T12:35:56.607Z,4.47
2023-02-13T12:40:18.736Z,4.03
2023-02-13T12:44:46.010Z,6.03
2023-02-13T12:48:58.775Z,4.38
2023-02-13T12:53:25.930Z,4.15
2023-02-13T12:57:45.198Z,5.18
2023-02-13T13:02:24.133Z,4.47
2023-02-13T13:06:47.854Z,5.15
2023-02-13T13:11:06.247Z,5.45
2023-02-13T13:15:17.753Z,4.80
2023-02-13T13:19:33.948Z,6.07
2023-02-13T13:23:43.974Z,6.32
2023-02-13T13:27:50.520Z,2.85
2023-02-13T13:31:56.539Z,4.65
2023-02-13T13:36:06.753Z,4.55
2023-02-13T13:40:27.739Z,4.45
2023-02-13T13:44:48.980Z,4.78
2023-02-13T13:49:01.585Z,5.28
2023-02-13T13:53:11.457Z,5.97
2023-02-13T13:57:15.905Z,5.28
2023-02-13T14:01:27.429Z,4.38
2023-02-13T14:05:32.415Z,7.95
2023-02-13T14:09:41.138Z,5.05
2023-02-13T14:13:45.999Z,5.07
2023-02-13T14:17:54.562Z,4.43
2023-02-13T14:22:32.721Z,4.82
2023-02-13T14:26:37.288Z,4.63
2023-02-13T14:30:41.761Z,4.13
2023-02-13T14:35:01.093Z,3.60
2023-02-13T14:39:07.983Z,3.72
2023-02-13T14:43:25.075Z,4.85
2023-02-13T14:47:33.506Z,4.32
2023-02-13T14:51:40.841Z,4.97
2023-02-13T14:55:46.651Z,4.38
2023-02-13T14:59:53.247Z,4.88
2023-02-13T15:04:01.678Z,3.47
2023-02-13T15:08:13.582Z,3.17
2023-02-13T15:12:31.027Z,4.22
2023-02-13T15:16:34.112Z,3.08
2023-02-13T15:20:43.004Z,3.22
2023-02-13T15:24:48.109Z,4.95
2023-02-13T15:29:01.132Z,3.15
2023-02-13T15:33:16.744Z,3.22
2023-02-13T15:37:26.170Z,2.65
2023-02-13T15:41:34.183Z,2.88
2023-02-13T15:45:37.229Z,2.22
2023-02-13T15:49:44.551Z,2.00
2023-02-13T15:53:53.810Z,3.17
2023-02-13T15:58:00.919Z,2.55
2023-02-13T16:02:06.060Z,3.47
2023-02-13T16:06:14.599Z,3.28
2023-02-13T16:10:31.438Z,5.13
2023-02-13T16:14:37.084Z,6.22
2023-02-13T16:18:41.536Z,3.92
2023-02-13T16:22:47.060Z,4.93
2023-02-13T16:26:51.789Z,5.43
2023-02-13T16:31:00.245Z,4.85
2023-02-13T16:35:37.932Z,5.35
2023-02-13T16:39:40.995Z,4.85
2023-02-13T16:43:48.389Z,4.93
2023-02-13T16:48:02.627Z,5.68
2023-02-13T16:52:12.641Z,5.20
2023-02-13T16:56:15.985Z,4.22
2023-02-13T17:00:25.444Z,5.65
2023-02-13T17:04:28.741Z,4.43
2023-02-13T17:08:32.405Z,5.15
2023-02-13T17:12:38.579Z,5.57
2023-02-13T17:16:43.063Z,4.75
2023-02-13T17:20:46.612Z,4.65
2023-02-13T17:24:49.803Z,4.20
2023-02-13T17:28:52.905Z,4.88
2023-02-13T17:33:00.690Z,5.32
2023-02-13T17:37:03.767Z,5.43
2023-02-13T17:41:07.534Z,4.25
2023-02-13T17:45:15.638Z,5.20
2023-02-13T17:49:20.036Z,5.22
2023-02-13T17:53:25.050Z,5.90
2023-02-13T17:57:28.358Z,5.75
2023-02-13T18:01:31.506Z,6.30
2023-02-13T18:05:35.926Z,4.80
2023-02-13T18:09:39.914Z,6.68
2023-02-13T18:13:48.033Z,6.35
2023-02-13T18:17:51.487Z,6.28
2023-02-13T18:21:55.967Z,5.93
2023-02-13T18:26:07.831Z,4.38
2023-02-13T18:30:12.793Z,4.80
2023-02-13T18:34:15.883Z,6.80
2023-02-13T18:38:20.299Z,4.72
2023-02-13T18:42:23.516Z,5.13
2023-02-13T18:46:28.632Z,5.38
2023-02-13T18:50:31.738Z,5.63
2023-02-13T18:54:36.954Z,4.75
2023-02-13T18:58:40.369Z,5.72
2023-02-13T19:02:43.554Z,5.07
2023-02-13T19:06:47.105Z,4.47
2023-02-13T19:10:51.808Z,6.22
2023-02-13T19:14:55.062Z,6.28
2023-02-13T19:19:01.228Z,5.78
2023-02-13T19:23:04.249Z,5.20
2023-02-13T19:27:08.802Z,4.60
2023-02-13T19:31:14.247Z,7.22
2023-02-13T19:35:17.391Z,6.18
2023-02-13T19:39:20.402Z,6.82
2023-02-13T19:43:24.971Z,5.70
2023-02-13T19:47:28.196Z,6.25
2023-02-13T19:51:32.672Z,5.43
2023-02-13T19:55:36.263Z,7.13
2023-02-13T19:59:40.857Z,5.53
2023-02-13T20:03:44.373Z,6.20
2023-02-13T20:07:47.438Z,9.73
2023-02-13T20:11:50.629Z,7.45
2023-02-13T20:15:57.702Z,7.25
2023-02-13T20:20:00.685Z,6.53
2023-02-13T20:24:04.561Z,6.22
2023-02-13T20:28:11.214Z,6.85
2023-02-13T20:32:16.338Z,5.85
2023-02-13T20:36:21.097Z,6.32
2023-02-13T20:40:24.115Z,5.90
2023-02-13T20:44:28.270Z,5.70
2023-02-13T20:48:32.913Z,6.30
2023-02-13T20:52:36.245Z,5.07
2023-02-13T20:56:39.441Z,6.55
2023-02-13T21:00:42.721Z,6.32
2023-02-13T21:04:47.420Z,5.15
2023-02-13T21:08:51.112Z,5.88
2023-02-13T21:12:54.140Z,5.53
2023-02-13T21:16:57.230Z,6.47
2023-02-13T21:21:01.775Z,5.95
2023-02-13T21:25:04.974Z,6.93
2023-02-13T21:29:08.237Z,5.70
2023-02-13T21:33:11.247Z,6.47
2023-02-13T21:37:15.659Z,5.55
2023-02-13T21:41:19.860Z,6.25
2023-02-13T21:45:22.896Z,5.40
2023-02-13T21:49:26.894Z,5.20
2023-02-13T21:53:32.128Z,6.32
2023-02-13T21:57:36.278Z,6.47
2023-02-13T22:01:39.562Z,7.60
2023-02-13T22:05:47.183Z,7.13
2023-02-13T22:09:52.249Z,5.97
2023-02-13T22:13:57.020Z,8.77
2023-02-13T22:18:00.159Z,6.68
2023-02-13T22:22:03.180Z,7.03
2023-02-13T22:26:08.046Z,4.40
2023-02-13T22:30:11.897Z,5.53
2023-02-13T22:34:15.143Z,6.43
2023-02-13T22:38:18.214Z,11.63
2023-02-13T22:42:22.552Z,6.05
2023-02-13T22:46:27.757Z,4.53
2023-02-13T22:50:32.611Z,4.65
2023-02-13T22:54:35.609Z,6.15
2023-02-13T22:58:40.356Z,5.82
2023-02-13T23:02:43.651Z,5.75
2023-02-13T23:06:46.827Z,4.38
2023-02-13T23:11:03.705Z,5.95
2023-02-13T23:15:11.318Z,4.70
2023-02-13T23:19:14.273Z,5.88
2023-02-13T23:23:17.358Z,5.28
2023-02-13T23:27:20.383Z,4.13
2023-02-13T23:31:24.960Z,5.68
2023-02-13T23:35:28.351Z,6.43
2023-02-13T23:39:31.348Z,5.10
2023-02-13T23:43:34.348Z,4.65
2023-02-13T23:47:39.025Z,5.28
2023-02-13T23:51:42.202Z,3.72
2023-02-13T23:55:45.243Z,5.53
2023-02-13T23:59:48.270Z,3.58
